Time;durP1;ratioP1;P1;durP2;ratioP2;P2;SDS_P1;SDS_P2;PMS_P1;PMS_P2;Temp;Humidity;BMP_temperature;BMP_pressure;BME280_temperature;BME280_humidity;BME280_pressure;Samples;Min_cycle;Max_cycle;Signal;HPM_P1;HPM_P2
2022/05/09 00:00:29;;;;;;;6.37;2.20;;;9.50;99.90;;;;;;4921357;29;20609;-79
2022/05/09 00:02:55;;;;;;;6.60;2.07;;;9.50;99.90;;;;;;4938339;29;20190;-79
2022/05/09 00:05:24;;;;;;;4.00;1.83;;;9.50;99.90;;;;;;4924689;29;20205;-79
2022/05/09 00:07:50;;;;;;;5.97;2.10;;;9.40;99.90;;;;;;4921359;29;20200;-79
2022/05/09 00:10:18;;;;;;;4.73;1.80;;;9.40;99.90;;;;;;4920098;29;20187;-79
2022/05/09 00:12:44;;;;;;;7.00;2.10;;;9.30;99.90;;;;;;4924499;29;20562;-79
2022/05/09 00:15:12;;;;;;;9.67;2.10;;;9.30;99.90;;;;;;4939613;29;20242;-79
2022/05/09 00:17:38;;;;;;;5.07;2.10;;;9.30;99.90;;;;;;4940189;29;20205;-79
2022/05/09 00:20:05;;;;;;;6.77;2.20;;;9.30;99.90;;;;;;4940014;29;20249;-79
2022/05/09 00:22:31;;;;;;;4.37;2.03;;;9.30;99.90;;;;;;4940450;29;20192;-78
2022/05/09 00:25:00;;;;;;;8.20;2.13;;;9.30;99.90;;;;;;4938240;29;20191;-79
2022/05/09 00:27:26;;;;;;;6.20;2.50;;;9.40;99.90;;;;;;4940099;29;20188;-78
2022/05/09 00:29:52;;;;;;;4.93;2.33;;;9.40;99.90;;;;;;4939153;29;20181;-78
2022/05/09 00:32:17;;;;;;;7.17;1.90;;;9.30;99.90;;;;;;4931534;29;20281;-78
2022/05/09 00:34:43;;;;;;;6.57;2.00;;;9.30;99.90;;;;;;4920497;29;20264;-79
2022/05/09 00:37:09;;;;;;;8.10;2.00;;;9.10;99.90;;;;;;4920634;29;20175;-79
2022/05/09 00:39:34;;;;;;;5.80;2.60;;;9.20;99.90;;;;;;4919056;29;20246;-79
2022/05/09 00:42:12;;;;;;;7.27;2.30;;;9.20;99.90;;;;;;4920379;29;20186;-78
2022/05/09 00:44:38;;;;;;;5.33;2.10;;;9.10;99.90;;;;;;4901348;29;20258;-79
2022/05/09 00:47:04;;;;;;;6.53;2.13;;;9.10;99.90;;;;;;4903346;29;20561;-78
2022/05/09 00:49:50;;;;;;;5.37;2.10;;;9.20;99.90;;;;;;4920528;29;20178;-79
2022/05/09 00:52:48;;;;;;;7.90;2.43;;;9.00;99.90;;;;;;4919165;29;20258;-79
2022/05/09 00:55:20;;;;;;;5.80;1.90;;;9.10;99.90;;;;;;4920433;29;20214;-79
2022/05/09 00:57:54;;;;;;;6.07;1.90;;;9.10;99.90;;;;;;4920159;29;20594;-79
2022/05/09 01:00:22;;;;;;;4.43;2.07;;;9.00;99.90;;;;;;4932200;29;20186;-79
2022/05/09 01:02:59;;;;;;;6.83;2.20;;;8.90;99.90;;;;;;4938978;29;20170;-78
2022/05/09 01:05:27;;;;;;;6.93;2.37;;;8.90;99.90;;;;;;4923316;29;20521;-79
2022/05/09 01:07:54;;;;;;;6.83;1.93;;;8.80;99.90;;;;;;4920155;29;20193;-79
2022/05/09 01:10:23;;;;;;;6.63;2.40;;;8.80;99.90;;;;;;4919206;29;20514;-79
2022/05/09 01:12:49;;;;;;;6.00;2.20;;;8.80;99.90;;;;;;4924080;29;20237;-78
2022/05/09 01:15:16;;;;;;;6.47;2.40;;;8.80;99.90;;;;;;4937896;29;20186;-78
2022/05/09 01:17:45;;;;;;;4.60;2.10;;;8.80;99.90;;;;;;4938850;29;20201;-79
2022/05/09 01:20:11;;;;;;;4.97;2.10;;;8.80;99.90;;;;;;4938999;29;20166;-80
2022/05/09 01:22:40;;;;;;;4.43;2.50;;;8.70;99.90;;;;;;4937822;29;20178;-80
2022/05/09 01:25:11;;;;;;;5.37;2.20;;;8.70;99.90;;;;;;4938426;29;20184;-80
2022/05/09 01:27:42;;;;;;;4.77;1.93;;;8.60;99.90;;;;;;4939014;29;20193;-79
2022/05/09 01:30:09;;;;;;;7.43;2.30;;;8.60;99.90;;;;;;4938863;29;20217;-80
2022/05/09 01:32:37;;;;;;;4.60;1.90;;;8.60;99.90;;;;;;4938803;29;20209;-79
2022/05/09 01:35:12;;;;;;;6.03;2.53;;;8.40;99.90;;;;;;4925612;29;20234;-79
2022/05/09 01:37:42;;;;;;;6.17;2.23;;;8.30;99.90;;;;;;4919814;29;20166;-79
2022/05/09 01:40:08;;;;;;;4.53;2.07;;;8.30;99.90;;;;;;4919667;29;20258;-79
2022/05/09 01:42:35;;;;;;;8.60;2.37;;;8.30;99.90;;;;;;4920757;29;20216;-79
2022/05/09 01:45:02;;;;;;;3.30;2.10;;;8.20;99.90;;;;;;4937789;29;20612;-79
2022/05/09 01:50:12;;;;;;;6.43;2.20;;;8.20;99.90;;;;;;4939324;29;20181;-79
2022/05/09 01:52:39;;;;;;;4.90;2.37;;;8.10;99.90;;;;;;4938311;29;20658;-79
2022/05/09 01:55:05;;;;;;;3.40;1.77;;;8.00;99.90;;;;;;4938422;29;20181;-79
2022/05/09 01:57:31;;;;;;;6.47;2.27;;;8.00;99.90;;;;;;4938437;29;20178;-79
2022/05/09 01:59:58;;;;;;;4.93;2.03;;;8.00;99.90;;;;;;4938259;29;20178;-79
2022/05/09 02:02:24;;;;;;;4.97;2.00;;;8.00;99.90;;;;;;4937910;29;20214;-79
2022/05/09 02:04:50;;;;;;;5.10;1.87;;;8.00;99.90;;;;;;4927269;29;20277;-79
2022/05/09 02:07:19;;;;;;;9.97;2.30;;;8.00;99.90;;;;;;4917980;29;20193;-79
2022/05/09 02:09:47;;;;;;;3.63;1.83;;;8.10;99.90;;;;;;4931621;29;20185;-79
2022/05/09 02:12:14;;;;;;;5.93;1.90;;;8.00;99.90;;;;;;4936635;29;20190;-79
2022/05/09 02:14:40;;;;;;;6.07;2.07;;;8.00;99.90;;;;;;4937557;29;20193;-79
2022/05/09 02:17:08;;;;;;;3.33;1.97;;;8.00;99.90;;;;;;4938076;29;20511;-78
2022/05/09 02:19:34;;;;;;;5.73;2.10;;;7.90;99.90;;;;;;4937906;29;20170;-79
2022/05/09 02:22:00;;;;;;;5.77;1.90;;;7.80;99.90;;;;;;4925813;29;20222;-79
2022/05/09 02:24:27;;;;;;;4.50;1.83;;;7.80;99.90;;;;;;4920213;29;20226;-79
2022/05/09 02:26:53;;;;;;;5.97;2.20;;;7.80;99.90;;;;;;4918360;29;20194;-79
2022/05/09 02:29:20;;;;;;;3.67;1.80;;;7.70;99.90;;;;;;4918066;29;20187;-79
2022/05/09 02:31:46;;;;;;;6.10;2.07;;;7.60;99.90;;;;;;4926936;29;20248;-80
2022/05/09 02:34:12;;;;;;;4.47;2.00;;;7.60;99.90;;;;;;4929894;29;20280;-80
2022/05/09 02:36:38;;;;;;;5.47;2.13;;;7.60;99.90;;;;;;4918840;29;20166;-79
2022/05/09 02:39:04;;;;;;;7.33;1.80;;;7.70;99.90;;;;;;4917118;29;20658;-79
2022/05/09 02:41:30;;;;;;;5.90;1.97;;;7.60;99.90;;;;;;4927928;29;20245;-79
2022/05/09 02:43:56;;;;;;;7.93;2.10;;;7.40;99.90;;;;;;4937328;29;20186;-79
2022/05/09 02:46:23;;;;;;;4.90;2.37;;;7.40;99.90;;;;;;4937487;29;20192;-80
2022/05/09 02:48:48;;;;;;;4.27;2.20;;;7.50;99.90;;;;;;4937241;29;20575;-77
2022/05/09 02:51:15;;;;;;;6.53;2.53;;;7.40;99.90;;;;;;4937452;29;20223;-77
2022/05/09 02:53:41;;;;;;;9.47;4.80;;;7.40;99.90;;;;;;4935364;29;20221;-78
2022/05/09 02:56:07;;;;;;;8.57;4.13;;;7.30;99.90;;;;;;4937624;29;20180;-78
2022/05/09 02:58:34;;;;;;;7.90;4.00;;;7.30;99.90;;;;;;4937176;29;20189;-78
2022/05/09 03:00:59;;;;;;;7.43;3.40;;;7.30;99.90;;;;;;4936876;29;20178;-78
2022/05/09 03:06:10;;;;;;;5.27;2.30;;;7.30;99.90;;;;;;4918198;29;20318;-78
2022/05/09 03:08:36;;;;;;;9.53;2.30;;;7.20;99.90;;;;;;4918176;29;20261;-78
2022/05/09 03:11:01;;;;;;;7.17;2.40;;;7.10;99.90;;;;;;4918081;29;20513;-78
2022/05/09 03:13:27;;;;;;;6.13;2.67;;;7.00;99.90;;;;;;4926969;29;20209;-78
2022/05/09 03:15:53;;;;;;;6.43;2.20;;;6.90;99.90;;;;;;4935312;29;20184;-78
2022/05/09 03:18:23;;;;;;;5.70;2.20;;;6.90;99.90;;;;;;4929900;29;20265;-78
2022/05/09 03:20:49;;;;;;;4.97;2.00;;;6.90;99.90;;;;;;4916787;29;20270;-79
2022/05/09 03:23:15;;;;;;;6.33;2.33;;;7.00;99.90;;;;;;4916706;29;20191;-78
2022/05/09 03:25:41;;;;;;;8.30;2.20;;;6.90;99.90;;;;;;4917992;29;20229;-78
2022/05/09 03:28:12;;;;;;;6.37;2.30;;;6.70;99.90;;;;;;4925626;29;20616;-78
2022/05/09 03:30:39;;;;;;;5.90;2.30;;;6.50;99.90;;;;;;4937054;29;20162;-78
2022/05/09 03:33:06;;;;;;;7.90;2.20;;;6.50;99.90;;;;;;4938253;29;20228;-78
2022/05/09 03:35:33;;;;;;;7.77;2.20;;;6.50;99.90;;;;;;4924029;29;20681;-79
2022/05/09 03:37:58;;;;;;;5.80;2.13;;;6.60;99.90;;;;;;4936027;29;20190;-79
2022/05/09 03:40:24;;;;;;;8.93;2.17;;;6.50;99.90;;;;;;4941000;29;20256;-78
2022/05/09 03:42:50;;;;;;;4.70;2.07;;;6.50;99.90;;;;;;4940837;29;20225;-78
2022/05/09 03:45:16;;;;;;;5.77;2.20;;;6.50;99.90;;;;;;4939252;29;20177;-80
2022/05/09 03:47:42;;;;;;;7.40;2.40;;;6.50;99.90;;;;;;4940492;29;20189;-78
2022/05/09 03:50:11;;;;;;;5.23;2.20;;;6.50;99.90;;;;;;4940775;29;20186;-78
2022/05/09 03:52:37;;;;;;;6.27;1.97;;;6.60;99.90;;;;;;4940562;29;20284;-78
2022/05/09 03:55:03;;;;;;;7.47;2.80;;;6.70;99.90;;;;;;4940605;29;20632;-79
2022/05/09 03:57:29;;;;;;;11.90;2.30;;;6.70;99.90;;;;;;4932223;29;20508;-78
2022/05/09 03:59:55;;;;;;;7.43;2.10;;;6.70;99.90;;;;;;4920953;29;20194;-78
2022/05/09 04:02:21;;;;;;;4.33;2.23;;;6.70;99.90;;;;;;4933046;29;20564;-78
2022/05/09 04:04:47;;;;;;;8.47;2.30;;;6.70;99.90;;;;;;4939889;29;20279;-78
2022/05/09 04:07:12;;;;;;;7.13;2.43;;;6.70;99.90;;;;;;4940236;29;20182;-79
2022/05/09 04:09:38;;;;;;;8.80;2.60;;;6.70;99.90;;;;;;4922633;29;20194;-79
2022/05/09 04:12:04;;;;;;;9.20;2.23;;;6.60;99.90;;;;;;4920870;29;20178;-78
2022/05/09 04:17:15;;;;;;;9.47;2.40;;;6.70;99.90;;;;;;4940172;29;20254;-78
2022/05/09 04:19:41;;;;;;;6.77;2.23;;;6.80;99.90;;;;;;4939152;29;20178;-79
2022/05/09 04:22:07;;;;;;;9.27;2.70;;;6.80;99.90;;;;;;4939016;29;20177;-79
2022/05/09 04:24:34;;;;;;;7.63;2.37;;;6.90;99.90;;;;;;4940024;29;20209;-79
2022/05/09 04:27:00;;;;;;;7.33;2.50;;;6.90;99.90;;;;;;4936351;29;20188;-80
2022/05/09 04:29:27;;;;;;;4.93;2.20;;;6.90;99.90;;;;;;4928017;29;20277;-80
2022/05/09 04:31:53;;;;;;;6.83;2.30;;;6.90;99.90;;;;;;4938757;29;20185;-80
2022/05/09 04:34:19;;;;;;;7.70;2.90;;;6.90;99.90;;;;;;4939513;29;20711;-80
2022/05/09 04:36:45;;;;;;;4.47;2.37;;;7.00;99.90;;;;;;4939869;29;20546;-80
2022/05/09 04:39:11;;;;;;;17.60;2.70;;;7.00;99.90;;;;;;4939657;29;20234;-80
2022/05/09 04:41:37;;;;;;;5.20;2.10;;;7.10;99.90;;;;;;4939611;29;20174;-80
2022/05/09 04:44:05;;;;;;;5.90;2.30;;;7.10;99.90;;;;;;4938635;29;20535;-80
2022/05/09 04:46:32;;;;;;;10.97;2.17;;;7.30;99.90;;;;;;4926675;29;20238;-79
2022/05/09 04:48:58;;;;;;;6.90;2.73;;;7.40;99.90;;;;;;4920411;29;20221;-80
2022/05/09 04:51:23;;;;;;;4.80;2.20;;;7.50;99.90;;;;;;4934021;29;20209;-80
2022/05/09 04:53:52;;;;;;;10.00;3.13;;;7.60;99.90;;;;;;4939290;29;20293;-80
2022/05/09 04:56:19;;;;;;;7.73;2.33;;;7.80;99.90;;;;;;4926233;29;20187;-80
2022/05/09 04:58:45;;;;;;;8.17;2.20;;;7.80;99.90;;;;;;4919531;29;20186;-79
2022/05/09 05:01:11;;;;;;;6.80;2.37;;;8.00;99.90;;;;;;4920534;29;21000;-79
2022/05/09 05:03:37;;;;;;;7.03;2.30;;;8.10;99.90;;;;;;4939465;29;20182;-79
2022/05/09 05:06:04;;;;;;;9.17;2.63;;;8.20;99.90;;;;;;4939123;29;20261;-79
2022/05/09 05:08:33;;;;;;;7.87;2.77;;;8.20;99.90;;;;;;4937859;29;20182;-79
2022/05/09 05:11:00;;;;;;;8.10;2.80;;;8.30;99.90;;;;;;4939072;29;20182;-80
2022/05/09 05:13:26;;;;;;;7.00;2.93;;;8.30;99.90;;;;;;4937050;29;20229;-79
2022/05/09 05:15:53;;;;;;;6.07;2.70;;;8.40;99.90;;;;;;4932581;29;20190;-80
2022/05/09 05:18:25;;;;;;;8.03;2.60;;;8.50;99.90;;;;;;4937836;29;20178;-80
2022/05/09 05:20:51;;;;;;;7.63;3.00;;;8.60;99.90;;;;;;4933558;29;20183;-79
2022/05/09 05:23:17;;;;;;;8.00;2.67;;;8.60;99.90;;;;;;4919468;29;20207;-80
2022/05/09 05:25:45;;;;;;;7.37;2.97;;;8.70;99.90;;;;;;4918237;29;20277;-80
2022/05/09 05:28:12;;;;;;;8.53;2.90;;;8.80;99.90;;;;;;4918957;29;20222;-80
2022/05/09 05:30:38;;;;;;;13.17;3.00;;;8.90;99.90;;;;;;4919006;29;20278;-79
2022/05/09 05:33:05;;;;;;;8.63;2.77;;;8.90;99.90;;;;;;4930556;29;20296;-80
2022/05/09 05:35:32;;;;;;;11.03;2.73;;;9.10;99.90;;;;;;4927970;29;20690;-79
2022/05/09 05:37:57;;;;;;;6.33;2.53;;;9.20;99.90;;;;;;4918234;29;20185;-80
2022/05/09 05:40:23;;;;;;;6.60;2.30;;;9.20;99.90;;;;;;4919644;29;20178;-81
2022/05/09 05:42:50;;;;;;;10.07;2.73;;;9.30;99.90;;;;;;4923854;29;20621;-79
2022/05/09 05:45:23;;;;;;;8.97;2.53;;;9.40;99.90;;;;;;4919824;29;20262;-80
2022/05/09 05:47:50;;;;;;;9.27;3.03;;;9.50;99.90;;;;;;4918717;29;20171;-81
2022/05/09 05:50:19;;;;;;;14.97;2.87;;;9.60;99.90;;;;;;4917278;29;20239;-79
2022/05/09 05:52:44;;;;;;;10.33;3.40;;;9.60;99.90;;;;;;4917306;29;20672;-79
2022/05/09 05:55:10;;;;;;;9.87;3.13;;;9.70;99.90;;;;;;4917159;29;20182;-79
2022/05/09 05:57:38;;;;;;;8.97;2.80;;;9.90;99.90;;;;;;4918855;29;20205;-78
2022/05/09 06:00:10;;;;;;;13.70;2.73;;;10.00;99.90;;;;;;4918617;29;20193;-79
2022/05/09 06:02:38;;;;;;;9.77;3.03;;;10.00;99.90;;;;;;4928948;29;20182;-80
2022/05/09 06:05:08;;;;;;;10.63;3.30;;;10.10;99.90;;;;;;4932867;29;20645;-79
2022/05/09 06:07:34;;;;;;;9.47;2.70;;;10.10;99.90;;;;;;4918066;29;20179;-80
2022/05/09 06:10:01;;;;;;;9.97;2.80;;;10.20;99.90;;;;;;4918908;29;20178;-79
2022/05/09 06:12:26;;;;;;;17.43;3.07;;;10.30;99.90;;;;;;4925613;29;20614;-80
2022/05/09 06:17:37;;;;;;;9.20;2.97;;;10.40;99.90;;;;;;4900093;29;20194;-80
2022/05/09 06:20:09;;;;;;;8.87;2.80;;;10.50;99.90;;;;;;4914115;29;20266;-80
2022/05/09 06:22:38;;;;;;;12.17;2.50;;;10.60;99.90;;;;;;4900173;29;20172;-80
2022/05/09 06:25:10;;;;;;;7.43;2.60;;;10.70;99.90;;;;;;4900055;29;20480;-80
2022/05/09 06:27:36;;;;;;;11.80;3.20;;;10.70;99.90;;;;;;4899934;29;20160;-80
2022/05/09 06:30:03;;;;;;;7.67;2.87;;;10.80;99.90;;;;;;4900571;29;20227;-80
2022/05/09 06:32:29;;;;;;;11.23;3.15;;;10.90;99.90;;;;;;4918174;29;20183;-80
2022/05/09 06:34:55;;;;;;;12.77;2.90;;;11.00;99.90;;;;;;4918334;29;20249;-81
2022/05/09 06:37:20;;;;;;;11.30;2.70;;;11.10;99.90;;;;;;4918586;29;20175;-79
2022/05/09 06:39:46;;;;;;;8.82;2.60;;;11.20;99.90;;;;;;4918512;29;20182;-80
2022/05/09 06:42:12;;;;;;;9.57;3.00;;;11.30;99.90;;;;;;4918258;29;20187;-79
2022/05/09 06:44:38;;;;;;;11.25;3.20;;;11.40;99.90;;;;;;4937157;29;20648;-80
2022/05/09 06:47:05;;;;;;;7.43;3.13;;;11.50;99.90;;;;;;4920710;29;20187;-81
2022/05/09 06:49:31;;;;;;;9.48;2.85;;;11.60;99.90;;;;;;4916903;29;20281;-80
2022/05/09 06:51:57;;;;;;;8.43;2.80;;;11.70;99.90;;;;;;4918764;29;20191;-80
2022/05/09 06:54:23;;;;;;;7.65;2.70;;;11.90;99.90;;;;;;4913810;29;20518;-79
2022/05/09 06:56:49;;;;;;;7.72;2.38;;;12.00;99.90;;;;;;4917947;29;20186;-80
2022/05/09 06:59:15;;;;;;;8.93;2.88;;;12.10;99.90;;;;;;4930886;29;20189;-80
2022/05/09 07:01:42;;;;;;;10.20;3.15;;;12.30;99.90;;;;;;4921103;29;20192;-81
2022/05/09 07:04:10;;;;;;;14.02;3.58;;;12.40;99.90;;;;;;4923690;29;20175;-79
2022/05/09 07:06:36;;;;;;;9.57;2.35;;;12.50;99.90;;;;;;4917876;29;20250;-81
2022/05/09 07:09:02;;;;;;;11.50;3.08;;;12.60;99.90;;;;;;4917922;29;20606;-80
2022/05/09 07:11:28;;;;;;;10.75;3.10;;;12.70;99.90;;;;;;4918060;29;20262;-81
2022/05/09 07:13:54;;;;;;;11.43;2.95;;;12.90;99.90;;;;;;4929365;29;20312;-81
2022/05/09 07:16:20;;;;;;;8.20;2.65;;;12.90;99.90;;;;;;4924499;29;20191;-80
2022/05/09 07:18:46;;;;;;;9.02;2.55;;;13.00;99.90;;;;;;4918291;29;20182;-80
2022/05/09 07:21:12;;;;;;;8.52;2.72;;;13.20;99.90;;;;;;4918087;29;20191;-80
2022/05/09 07:23:38;;;;;;;10.88;3.40;;;13.40;99.90;;;;;;4926054;29;20194;-81
2022/05/09 07:26:04;;;;;;;13.45;3.53;;;13.40;99.90;;;;;;4936942;29;20174;-79
2022/05/09 07:28:30;;;;;;;16.35;3.58;;;13.60;99.90;;;;;;4936890;29;20182;-80
2022/05/09 07:30:58;;;;;;;9.88;2.95;;;13.70;99.90;;;;;;4936400;29;20375;-80
2022/05/09 07:33:24;;;;;;;10.85;3.05;;;13.90;99.90;;;;;;4936767;29;20200;-81
2022/05/09 07:35:50;;;;;;;11.48;2.88;;;14.10;99.90;;;;;;4935315;29;20233;-81
2022/05/09 07:38:16;;;;;;;11.43;3.35;;;14.20;99.90;;;;;;4933332;29;20246;-81
2022/05/09 07:40:44;;;;;;;10.50;2.80;;;14.40;99.90;;;;;;4917244;29;20640;-80
2022/05/09 07:43:17;;;;;;;9.05;2.90;;;14.50;99.90;;;;;;4924895;29;20232;-79
2022/05/09 07:45:43;;;;;;;9.40;2.80;;;14.60;99.90;;;;;;4930582;29;20193;-80
2022/05/09 07:48:10;;;;;;;10.93;3.17;;;14.80;99.90;;;;;;4926705;29;20241;-81
2022/05/09 07:50:37;;;;;;;9.10;2.40;;;15.00;99.90;;;;;;4919024;29;20186;-81
2022/05/09 07:53:12;;;;;;;9.00;2.67;;;15.00;99.50;;;;;;4899159;29;20219;-80
2022/05/09 07:55:42;;;;;;;9.43;2.92;;;15.20;99.60;;;;;;4898952;29;20171;-81
2022/05/09 07:58:09;;;;;;;12.02;3.33;;;15.20;99.20;;;;;;4913073;29;20273;-81
2022/05/09 08:00:36;;;;;;;9.38;2.80;;;15.40;98.30;;;;;;4933693;29;20209;-81
2022/05/09 08:03:03;;;;;;;8.90;2.38;;;15.60;99.40;;;;;;4935398;29;20190;-81
2022/05/09 08:05:28;;;;;;;13.75;3.20;;;15.70;98.80;;;;;;4936634;29;20236;-81
2022/05/09 08:07:54;;;;;;;8.85;2.80;;;15.80;98.70;;;;;;4936598;29;20669;-82
2022/05/09 08:10:21;;;;;;;11.13;2.80;;;15.80;98.70;;;;;;4920389;29;20241;-82
2022/05/09 08:12:47;;;;;;;7.75;2.50;;;16.00;98.10;;;;;;4919826;29;20218;-81
2022/05/09 08:15:15;;;;;;;11.10;2.95;;;16.10;98.00;;;;;;4917407;29;20175;-82
2022/05/09 08:17:41;;;;;;;8.55;2.88;;;16.30;97.80;;;;;;4916463;29;20634;-82
2022/05/09 08:20:08;;;;;;;9.48;3.20;;;16.40;97.20;;;;;;4921033;29;20214;-81
2022/05/09 08:22:34;;;;;;;7.20;2.80;;;16.30;97.20;;;;;;4921072;29;20171;-82
2022/05/09 08:25:01;;;;;;;10.50;2.58;;;16.40;96.90;;;;;;4919658;29;20207;-82
2022/05/09 08:27:27;;;;;;;8.05;2.55;;;16.50;96.30;;;;;;4921170;29;20182;-82
2022/05/09 08:29:56;;;;;;;12.75;3.00;;;16.50;96.70;;;;;;4919245;29;20209;-82
2022/05/09 08:32:26;;;;;;;8.38;2.70;;;16.70;96.70;;;;;;4926099;29;20225;-83
2022/05/09 08:34:52;;;;;;;8.30;2.47;;;16.80;96.00;;;;;;4939885;29;20304;-83
2022/05/09 08:37:21;;;;;;;8.73;2.50;;;16.80;95.90;;;;;;4939796;29;20488;-81
2022/05/09 08:39:47;;;;;;;11.30;2.70;;;16.90;96.50;;;;;;4939692;29;20635;-82
2022/05/09 08:42:50;;;;;;;12.02;2.90;;;16.90;95.60;;;;;;4939274;29;20205;-83
2022/05/09 08:45:52;;;;;;;7.10;2.45;;;17.10;96.40;;;;;;4934812;29;20542;-82
2022/05/09 08:48:27;;;;;;;9.77;2.78;;;17.30;95.20;;;;;;4914355;29;20242;-82
2022/05/09 08:51:12;;;;;;;10.85;2.60;;;17.40;95.20;;;;;;4919456;29;20200;-83
2022/05/09 08:53:44;;;;;;;7.35;2.38;;;17.50;95.50;;;;;;4919245;29;20218;-82
2022/05/09 08:56:16;;;;;;;6.95;2.38;;;17.70;93.30;;;;;;4919259;29;20313;-82
2022/05/09 08:58:51;;;;;;;11.65;2.72;;;17.70;92.70;;;;;;4920635;29;20198;-82
2022/05/09 09:01:26;;;;;;;11.20;2.60;;;17.80;94.40;;;;;;4921645;29;20185;-82
2022/05/09 09:04:01;;;;;;;8.95;2.47;;;17.90;93.60;;;;;;4938224;29;20189;-82
2022/05/09 09:06:38;;;;;;;9.23;2.63;;;18.10;93.50;;;;;;4938682;29;20166;-82
2022/05/09 09:09:23;;;;;;;6.25;2.33;;;18.20;93.10;;;;;;4938013;29;20182;-82
2022/05/09 09:11:58;;;;;;;7.63;2.33;;;18.20;91.90;;;;;;4939201;29;20492;-81
2022/05/09 09:14:48;;;;;;;8.52;2.28;;;18.40;94.00;;;;;;4938916;29;20231;-83
2022/05/09 09:17:37;;;;;;;5.90;2.13;;;18.50;92.40;;;;;;4921330;29;20182;-81
2022/05/09 09:20:21;;;;;;;5.50;2.10;;;18.60;88.70;;;;;;4934490;29;20213;-82
2022/05/09 09:23:14;;;;;;;9.45;2.55;;;18.70;87.40;;;;;;4938883;29;20158;-81
2022/05/09 09:25:42;;;;;;;7.20;2.17;;;18.80;82.70;;;;;;4937859;29;20174;-82
2022/05/09 09:28:15;;;;;;;5.82;2.00;;;18.80;80.20;;;;;;4938901;29;20612;-81
2022/05/09 09:30:42;;;;;;;7.28;2.28;;;19.00;80.00;;;;;;4936630;29;20181;-80
2022/05/09 09:33:12;;;;;;;6.78;1.98;;;19.00;79.90;;;;;;4937269;29;20691;-83
2022/05/09 09:36:05;;;;;;;6.18;2.30;;;19.10;79.70;;;;;;4937331;29;20240;-83
2022/05/09 09:38:47;;;;;;;9.05;2.15;;;19.10;75.50;;;;;;4937674;29;20178;-83
2022/05/09 09:41:30;;;;;;;13.32;2.42;;;19.10;76.90;;;;;;4938847;29;20173;-84
2022/05/09 09:44:13;;;;;;;5.80;2.00;;;19.20;78.30;;;;;;4937472;29;20192;-83
2022/05/09 09:46:58;;;;;;;3.60;1.58;;;19.30;78.00;;;;;;4937125;29;20255;-83
2022/05/09 09:49:24;;;;;;;6.40;2.00;;;19.60;78.40;;;;;;4938571;29;20189;-83
2022/05/09 09:51:50;;;;;;;8.45;2.30;;;19.60;78.40;;;;;;4937281;29;20234;-82
2022/05/09 09:54:30;;;;;;;10.35;2.53;;;19.70;76.90;;;;;;4936571;29;20316;-84
2022/05/09 09:57:13;;;;;;;5.65;1.75;;;19.80;77.20;;;;;;4924020;29;20171;-82
2022/05/09 09:59:38;;;;;;;8.45;2.47;;;19.70;74.30;;;;;;4917594;29;20246;-83
2022/05/09 10:02:17;;;;;;;10.02;2.53;;;19.80;77.90;;;;;;4923285;29;20186;-83
2022/05/09 10:04:44;;;;;;;7.30;2.15;;;19.90;76.10;;;;;;4920429;29;20245;-84
2022/05/09 10:07:16;;;;;;;8.15;2.13;;;20.00;75.00;;;;;;4921959;29;20285;-83
2022/05/09 10:09:44;;;;;;;11.18;2.47;;;20.00;70.30;;;;;;4915560;29;20524;-83
2022/05/09 10:12:19;;;;;;;4.18;1.92;;;20.00;72.50;;;;;;4917299;29;20191;-84
2022/05/09 10:14:45;;;;;;;7.57;1.90;;;19.90;73.80;;;;;;4912714;29;20266;-83
2022/05/09 10:17:16;;;;;;;8.20;2.13;;;20.20;80.30;;;;;;4917632;29;20183;-81
2022/05/09 10:19:42;;;;;;;10.00;2.25;;;20.30;76.40;;;;;;4918438;29;20187;-81
2022/05/09 10:25:24;;;;;;;7.53;2.20;;;20.40;72.60;;;;;;4918588;29;20218;-79
2022/05/09 10:28:10;;;;;;;7.25;2.00;;;20.30;69.80;;;;;;4921884;29;20190;-82
2022/05/09 10:30:40;;;;;;;6.03;2.40;;;20.40;70.10;;;;;;4937491;29;20169;-81
2022/05/09 10:33:25;;;;;;;5.03;1.92;;;20.50;73.80;;;;;;4935192;29;20265;-81
2022/05/09 10:35:54;;;;;;;7.80;2.20;;;20.60;69.20;;;;;;4937033;29;20276;-81
2022/05/09 10:39:00;;;;;;;12.02;4.55;;;20.50;70.80;;;;;;4935659;29;20182;-82
2022/05/09 10:41:52;;;;;;;10.63;2.92;;;20.70;71.40;;;;;;4918247;29;20718;-83
2022/05/09 10:44:47;;;;;;;7.03;1.83;;;20.70;73.00;;;;;;4929877;29;20234;-83
2022/05/09 10:47:56;;;;;;;7.45;2.08;;;21.00;73.70;;;;;;4932007;29;20201;-83
2022/05/09 10:50:49;;;;;;;5.07;1.70;;;21.10;73.40;;;;;;4937405;29;20251;-83
2022/05/09 10:53:31;;;;;;;7.25;1.90;;;21.30;70.40;;;;;;4934232;29;20213;-83
2022/05/09 10:56:05;;;;;;;4.05;1.90;;;21.30;69.70;;;;;;4932741;29;20245;-82
2022/05/09 10:59:10;;;;;;;4.40;1.63;;;21.30;71.30;;;;;;4937342;29;20171;-81
2022/05/09 11:02:15;;;;;;;8.05;2.10;;;21.10;70.80;;;;;;4926858;29;20530;-82
2022/05/09 11:04:41;;;;;;;9.02;2.17;;;21.20;72.60;;;;;;4937448;29;20252;-81
2022/05/09 11:07:34;;;;;;;13.77;2.35;;;21.20;74.70;;;;;;4937255;29;20573;-82
2022/05/09 11:10:29;;;;;;;5.63;2.15;;;21.20;73.40;;;;;;4935631;29;20189;-83
2022/05/09 11:13:15;;;;;;;11.88;1.95;;;21.40;73.10;;;;;;4935696;29;20582;-82
2022/05/09 11:15:52;;;;;;;9.48;2.30;;;21.50;71.20;;;;;;4931142;29;20278;-81
2022/05/09 11:18:18;;;;;;;7.50;1.98;;;21.70;70.40;;;;;;4918181;29;20201;-82
2022/05/09 11:21:06;;;;;;;6.15;1.90;;;21.70;73.20;;;;;;4916054;29;20665;-82
2022/05/09 11:23:53;;;;;;;7.00;2.30;;;21.80;73.70;;;;;;4918040;29;20174;-84
2022/05/09 11:26:43;;;;;;;5.18;1.70;;;22.00;72.30;;;;;;4918141;29;20170;-83
2022/05/09 11:29:38;;;;;;;5.40;2.03;;;22.00;68.40;;;;;;4919906;29;20264;-83
2022/05/09 11:32:24;;;;;;;10.55;2.45;;;22.10;69.20;;;;;;4936307;29;20182;-83
2022/05/09 11:35:32;;;;;;;5.90;1.92;;;22.20;68.60;;;;;;4929808;29;20233;-83
2022/05/09 11:38:07;;;;;;;5.22;1.90;;;22.20;68.10;;;;;;4937151;29;20212;-81
2022/05/09 11:40:48;;;;;;;7.82;1.85;;;22.20;66.80;;;;;;4929871;29;20561;-83
2022/05/09 11:43:34;;;;;;;4.45;1.98;;;22.30;69.80;;;;;;4924369;29;20534;-83
2022/05/09 11:46:18;;;;;;;4.93;1.45;;;22.50;70.50;;;;;;4917407;29;20186;-84
2022/05/09 11:49:06;;;;;;;4.78;1.90;;;22.60;67.80;;;;;;4917262;29;20185;-82
2022/05/09 11:51:38;;;;;;;9.27;2.00;;;22.60;65.90;;;;;;4923089;29;20409;-83
2022/05/09 11:54:27;;;;;;;6.18;1.40;;;22.70;67.30;;;;;;4908633;29;20225;-82
2022/05/09 11:56:56;;;;;;;6.93;1.92;;;22.70;67.30;;;;;;4921511;29;20225;-83
2022/05/09 11:59:34;;;;;;;4.95;1.67;;;22.70;67.30;;;;;;4920100;29;20280;-83
2022/05/09 12:02:12;;;;;;;5.03;1.80;;;22.80;68.30;;;;;;4920973;29;20178;-83
2022/05/09 12:04:47;;;;;;;6.35;1.80;;;22.90;66.50;;;;;;4921850;29;20810;-83
2022/05/09 12:07:21;;;;;;;4.45;1.90;;;23.00;68.80;;;;;;4935018;29;20182;-81
2022/05/09 12:10:03;;;;;;;7.43;1.73;;;23.00;68.60;;;;;;4928376;29;20241;-83
2022/05/09 12:12:41;;;;;;;7.60;2.08;;;23.10;67.40;;;;;;4919513;29;20205;-83
2022/05/09 12:15:14;;;;;;;6.07;1.67;;;23.20;67.90;;;;;;4919387;29;20192;-83
2022/05/09 12:17:48;;;;;;;6.82;1.83;;;23.20;63.30;;;;;;4919992;29;20222;-81
2022/05/09 12:20:37;;;;;;;5.80;2.05;;;23.30;66.80;;;;;;4919775;29;20178;-82
2022/05/09 12:23:05;;;;;;;10.07;2.22;;;23.30;66.30;;;;;;4919771;29;20171;-82
2022/05/09 12:25:34;;;;;;;5.47;1.80;;;23.40;65.10;;;;;;4939582;29;20192;-82
2022/05/09 12:28:18;;;;;;;5.97;1.77;;;23.30;61.50;;;;;;4939094;29;20272;-82
2022/05/09 12:30:52;;;;;;;6.70;1.90;;;22.90;62.00;;;;;;4901789;29;20171;-81
2022/05/09 12:33:20;;;;;;;5.13;1.88;;;22.90;64.40;;;;;;4901951;29;20203;-82
2022/05/09 12:35:49;;;;;;;6.13;2.00;;;22.90;63.20;;;;;;4911108;29;20568;-82
2022/05/09 12:38:20;;;;;;;7.35;1.83;;;22.90;65.50;;;;;;4920804;29;20190;-83
2022/05/09 12:40:46;;;;;;;5.10;1.85;;;23.10;69.20;;;;;;4918840;29;20233;-83
2022/05/09 12:43:12;;;;;;;4.50;1.73;;;23.20;66.00;;;;;;4922379;29;20193;-82
2022/05/09 12:45:40;;;;;;;8.80;2.08;;;23.20;69.20;;;;;;4939392;29;20170;-84
2022/05/09 12:48:10;;;;;;;4.45;1.92;;;23.30;64.30;;;;;;4926047;29;20185;-83
2022/05/09 12:50:43;;;;;;;5.78;1.95;;;23.20;64.20;;;;;;4919819;29;20489;-81
2022/05/09 12:53:12;;;;;;;6.13;1.85;;;23.40;65.60;;;;;;4901670;29;20259;-84
2022/05/09 12:55:55;;;;;;;4.65;1.90;;;23.60;65.20;;;;;;4924544;29;20178;-82
2022/05/09 12:58:35;;;;;;;5.32;1.75;;;23.60;63.80;;;;;;4922252;29;20183;-84
2022/05/09 13:01:23;;;;;;;4.70;1.75;;;23.40;64.00;;;;;;4920048;29;20641;-82
2022/05/09 13:03:58;;;;;;;5.05;1.80;;;23.20;62.20;;;;;;4919408;29;20246;-84
2022/05/09 13:06:27;;;;;;;7.20;2.13;;;23.30;63.20;;;;;;4919101;29;20177;-83
2022/05/09 13:08:54;;;;;;;9.15;2.25;;;23.40;67.60;;;;;;4922931;29;20297;-81
2022/05/09 13:11:38;;;;;;;6.38;1.92;;;23.50;64.70;;;;;;4939086;29;20182;-82
2022/05/09 13:14:17;;;;;;;6.15;1.98;;;23.70;64.60;;;;;;4938044;29;20213;-82
2022/05/09 13:16:55;;;;;;;5.65;1.90;;;23.70;64.60;;;;;;4934450;29;20171;-83
2022/05/09 13:19:21;;;;;;;6.47;1.98;;;23.80;67.10;;;;;;4919404;29;20206;-81
2022/05/09 13:21:49;;;;;;;9.50;1.85;;;23.90;68.10;;;;;;4919828;29;20183;-82
2022/05/09 13:24:26;;;;;;;6.97;1.85;;;24.10;66.20;;;;;;4919877;29;20610;-83